Time;durP1;ratioP1;P1;durP2;ratioP2;P2;SDS_P1;SDS_P2;PMS_P1;PMS_P2;Temp;Humidity;BMP_temperature;BMP_pressure;BME280_temperature;BME280_humidity;BME280_pressure;Samples;Min_cycle;Max_cycle;Signal;HPM_P1;HPM_P2
2023/01/19 00:00:11;;;;;;;0.80;0.80;;;;;;;21.94;34.78;98248.45;1879607;75;35181;-53
2023/01/19 00:03:00;;;;;;;1.70;0.50;;;;;;;21.98;34.64;98249.57;1890993;75;28062;-55
2023/01/19 00:05:48;;;;;;;0.70;0.70;;;;;;;21.98;34.66;98249.57;1878368;75;28140;-53
2023/01/19 00:08:37;;;;;;;0.57;0.57;;;;;;;22.01;34.58;98255.06;1873352;75;30238;-49
2023/01/19 00:11:26;;;;;;;0.78;0.78;;;;;;;22.01;34.62;98255.89;1868433;76;28158;-54
2023/01/19 00:14:15;;;;;;;0.65;0.65;;;;;;;22.00;34.64;98252.90;1872016;74;28145;-50
2023/01/19 00:17:03;;;;;;;0.60;0.60;;;;;;;22.03;34.57;98253.72;1795219;79;28389;-51
2023/01/19 00:19:51;;;;;;;0.62;0.62;;;;;;;22.03;34.59;98256.45;1849321;75;28090;-52
2023/01/19 00:22:40;;;;;;;0.77;0.77;;;;;;;22.03;34.60;98254.29;1862944;76;28182;-51
2023/01/19 00:25:28;;;;;;;0.78;0.53;;;;;;;22.00;34.58;98248.80;1860947;75;28054;-49
2023/01/19 00:28:18;;;;;;;0.70;0.70;;;;;;;22.03;34.52;98245.25;1855387;75;28232;-52
2023/01/19 00:31:07;;;;;;;1.00;0.60;;;;;;;22.02;34.47;98249.89;1840660;76;28222;-49
2023/01/19 00:33:56;;;;;;;0.90;0.60;;;;;;;22.03;34.55;98237.05;1828387;77;28322;-50
2023/01/19 00:36:45;;;;;;;0.60;0.60;;;;;;;22.03;34.50;98247.98;1867500;75;28172;-48
2023/01/19 00:39:33;;;;;;;0.60;0.60;;;;;;;22.03;34.52;98247.45;1856222;76;28168;-51
2023/01/19 00:42:39;;;;;;;0.60;0.60;;;;;;;22.03;34.57;98250.98;1845510;75;28186;-50
2023/01/19 00:45:28;;;;;;;0.60;0.60;;;;;;;22.02;34.54;98248.52;1863787;76;28170;-50
2023/01/19 00:48:16;;;;;;;0.70;0.70;;;;;;;22.00;34.56;98252.06;1858213;75;28180;-48
2023/01/19 00:51:05;;;;;;;0.65;0.65;;;;;;;21.96;34.57;98250.38;1832179;76;28609;-49
2023/01/19 00:53:53;;;;;;;0.62;0.62;;;;;;;21.96;34.56;98254.48;1848491;76;28087;-51
2023/01/19 00:56:41;;;;;;;0.60;0.60;;;;;;;21.94;34.61;98252.55;1850838;76;28232;-49
2023/01/19 00:59:30;;;;;;;0.95;0.60;;;;;;;21.99;34.63;98258.61;1866546;75;28110;-52
2023/01/19 01:02:18;;;;;;;0.90;0.60;;;;;;;21.99;34.57;98245.77;1850235;75;28220;-50
2023/01/19 01:05:08;;;;;;;0.80;0.80;;;;;;;22.00;34.60;98256.17;1845199;76;28137;-49
2023/01/19 01:07:56;;;;;;;0.53;0.53;;;;;;;21.99;34.63;98249.87;1856391;76;28149;-48
2023/01/19 01:10:45;;;;;;;0.90;0.70;;;;;;;21.98;34.63;98263.24;1877582;75;28055;-50
2023/01/19 01:13:33;;;;;;;0.70;0.70;;;;;;;21.99;34.73;98257.23;1820707;77;28412;-49
2023/01/19 01:16:22;;;;;;;0.57;0.57;;;;;;;22.01;34.69;98261.36;1877719;75;28141;-50
2023/01/19 01:19:10;;;;;;;0.93;0.53;;;;;;;21.98;34.72;98263.24;1881758;75;28087;-49
2023/01/19 01:21:58;;;;;;;0.70;0.70;;;;;;;21.98;34.70;98269.28;1879459;75;28176;-51
2023/01/19 01:24:47;;;;;;;0.55;0.55;;;;;;;21.99;34.65;98275.02;1885103;75;28444;-50
2023/01/19 01:27:35;;;;;;;0.50;0.50;;;;;;;21.96;34.68;98258.58;1881250;75;28275;-51
2023/01/19 01:30:24;;;;;;;0.70;0.70;;;;;;;21.96;34.68;98272.25;1880662;75;28244;-51
2023/01/19 01:33:14;;;;;;;1.50;0.80;;;;;;;21.97;34.66;98276.65;1887508;75;30024;-51
2023/01/19 01:36:02;;;;;;;0.68;0.68;;;;;;;21.96;34.67;98264.05;1874431;75;28171;-48
2023/01/19 01:38:50;;;;;;;1.50;0.50;;;;;;;21.97;34.66;98262.14;1888109;75;28107;-49
2023/01/19 01:41:38;;;;;;;0.68;0.68;;;;;;;21.95;34.71;98271.98;1890716;75;32070;-52
2023/01/19 01:44:54;;;;;;;0.60;0.60;;;;;;;21.94;34.75;98270.86;1887594;75;28179;-48
2023/01/19 01:47:49;;;;;;;0.70;0.70;;;;;;;21.94;34.80;98279.06;1875672;75;28056;-49
2023/01/19 01:54:07;;;;;;;0.60;0.60;;;;;;;21.88;34.93;98278.20;1890116;75;28125;-48
2023/01/19 01:56:59;;;;;;;2.60;0.67;;;;;;;21.83;35.05;98280.86;1844473;76;28153;-51
2023/01/19 01:59:50;;;;;;;0.47;0.47;;;;;;;21.84;35.07;98278.98;1877190;75;28172;-51
2023/01/19 02:02:53;;;;;;;0.70;0.70;;;;;;;21.86;35.07;98287.22;1867778;75;28184;-49
2023/01/19 02:05:42;;;;;;;0.60;0.60;;;;;;;21.86;35.07;98287.22;1891708;75;28048;-49
2023/01/19 02:14:49;;;;;;;1.00;0.70;;;;;;;21.85;35.09;98297.86;1897959;74;28091;-51
2023/01/19 02:17:38;;;;;;;0.72;0.70;;;;;;;21.84;35.15;98296.19;1879841;75;28122;-48
2023/01/19 02:20:30;;;;;;;0.50;0.50;;;;;;;21.86;35.15;98298.69;1865391;75;28145;-48
2023/01/19 02:23:21;;;;;;;0.70;0.70;;;;;;;21.88;35.09;98298.71;1888143;75;28190;-49
2023/01/19 02:26:12;;;;;;;0.70;0.70;;;;;;;21.89;35.10;98295.44;1892802;75;28154;-49
2023/01/19 02:29:07;;;;;;;0.60;0.60;;;;;;;21.89;35.09;98289.98;1867533;75;28160;-51
2023/01/19 02:31:56;;;;;;;0.60;0.60;;;;;;;21.89;35.15;98289.98;1837735;76;28287;-50
2023/01/19 02:34:44;;;;;;;0.50;0.50;;;;;;;21.89;35.18;98296.81;1867419;75;28127;-49
2023/01/19 02:37:36;;;;;;;2.00;0.80;;;;;;;21.90;35.18;98304.74;1882388;75;28067;-50
2023/01/19 02:40:26;;;;;;;1.20;0.60;;;;;;;21.90;35.18;98305.28;1879832;75;28382;-51
2023/01/19 02:43:17;;;;;;;0.57;0.57;;;;;;;21.89;35.19;98300.34;1887799;75;28120;-50
2023/01/19 02:46:07;;;;;;;0.57;0.57;;;;;;;21.88;35.20;98301.45;1878898;75;28173;-49
2023/01/19 02:49:00;;;;;;;0.50;0.50;;;;;;;21.88;35.28;98309.64;1875439;75;28082;-50
2023/01/19 02:51:49;;;;;;;0.70;0.62;;;;;;;21.91;35.22;98305.58;1872282;75;28093;-48
2023/01/19 02:55:10;;;;;;;0.60;0.60;;;;;;;21.90;35.21;98310.21;1866788;75;28140;-50
2023/01/19 02:58:13;;;;;;;1.37;0.80;;;;;;;21.91;35.25;98305.58;1886675;75;30014;-48
2023/01/19 03:01:25;;;;;;;1.50;0.60;;;;;;;21.85;35.35;98314.25;1873719;75;28237;-48
2023/01/19 03:04:35;;;;;;;0.50;0.50;;;;;;;21.84;35.36;98316.69;1884170;75;32129;-48
2023/01/19 03:07:41;;;;;;;0.62;0.62;;;;;;;21.83;35.07;98313.66;1877057;75;28087;-48
2023/01/19 03:10:44;;;;;;;0.85;0.85;;;;;;;21.83;34.93;98319.66;1884693;75;28180;-49
2023/01/19 03:13:47;;;;;;;1.00;0.70;;;;;;;21.83;34.96;98316.39;1867436;75;28208;-47
2023/01/19 03:16:48;;;;;;;0.80;0.70;;;;;;;21.84;34.91;98313.95;1863757;75;28199;-50
2023/01/19 03:19:40;;;;;;;0.57;0.57;;;;;;;21.83;34.92;98313.66;1858290;75;28140;-52
2023/01/19 03:22:30;;;;;;;0.70;0.60;;;;;;;21.83;34.91;98304.09;1875926;75;28061;-48
2023/01/19 03:25:21;;;;;;;1.60;0.80;;;;;;;21.85;34.84;98307.42;1873520;75;28213;-48
2023/01/19 03:28:11;;;;;;;0.57;0.57;;;;;;;21.87;34.77;98306.62;1880727;75;28169;-51
2023/01/19 03:31:05;;;;;;;0.80;0.80;;;;;;;21.87;34.74;98309.35;1878068;75;28061;-51
2023/01/19 03:33:57;;;;;;;0.65;0.65;;;;;;;21.92;34.68;98313.51;1880420;75;28187;-49
2023/01/19 03:36:49;;;;;;;1.50;0.80;;;;;;;21.90;34.73;98326.62;1873891;75;31087;-51
2023/01/19 03:39:38;;;;;;;0.75;0.75;;;;;;;21.90;34.58;98325.25;1877356;75;28085;-49
2023/01/19 03:42:28;;;;;;;1.35;0.72;;;;;;;21.90;34.66;98326.62;1858571;75;28184;-53
2023/01/19 03:45:18;;;;;;;0.60;0.60;;;;;;;21.90;34.63;98329.88;1825831;77;28216;-48
2023/01/19 03:48:07;;;;;;;0.60;0.60;;;;;;;21.90;34.54;98331.25;1860754;75;28238;-50
2023/01/19 03:50:56;;;;;;;1.50;0.80;;;;;;;21.87;34.61;98325.75;1874971;75;28202;-48
2023/01/19 03:53:45;;;;;;;0.72;0.72;;;;;;;21.89;34.59;98326.88;1809283;77;28291;-53
2023/01/19 03:56:33;;;;;;;0.70;0.70;;;;;;;21.90;34.63;98336.72;1802445;79;28228;-50
2023/01/19 03:59:22;;;;;;;0.60;0.60;;;;;;;21.87;34.61;98339.42;1874835;75;28181;-50
2023/01/19 04:02:10;;;;;;;1.30;0.78;;;;;;;21.87;34.52;98339.42;1822233;77;28204;-53
2023/01/19 04:04:58;;;;;;;1.30;0.75;;;;;;;21.89;34.64;98343.28;1873664;75;28211;-52
2023/01/19 04:07:49;;;;;;;0.90;0.68;;;;;;;21.88;34.63;98347.09;1878381;75;28304;-52
2023/01/19 04:10:38;;;;;;;0.68;0.68;;;;;;;21.86;34.60;98345.16;1873241;75;28085;-50
2023/01/19 04:13:28;;;;;;;0.80;0.70;;;;;;;21.86;34.61;98349.27;1867836;75;28068;-50
2023/01/19 04:16:19;;;;;;;0.78;0.78;;;;;;;21.85;34.61;98344.86;1830302;76;28170;-50
2023/01/19 04:19:07;;;;;;;1.77;0.60;;;;;;;21.84;34.63;98352.23;1897008;74;30162;-52
2023/01/19 04:21:56;;;;;;;0.80;0.60;;;;;;;21.83;34.66;98362.03;1877147;75;28119;-49
2023/01/19 04:24:44;;;;;;;1.72;0.80;;;;;;;21.81;34.65;98355.47;1892162;75;28106;-48
2023/01/19 04:27:32;;;;;;;0.68;0.68;;;;;;;21.80;34.57;98352.97;1888788;75;38445;-52
2023/01/19 04:30:21;;;;;;;0.50;0.50;;;;;;;21.79;34.65;98354.91;1889080;75;28088;-49
2023/01/19 04:33:10;;;;;;;1.05;0.60;;;;;;;21.79;34.63;98354.91;1880316;75;28177;-50
2023/01/19 04:35:59;;;;;;;0.50;0.50;;;;;;;21.78;34.66;98354.61;1881708;75;28071;-50
2023/01/19 04:38:47;;;;;;;0.73;0.60;;;;;;;21.77;34.70;98358.44;1894496;75;28203;-52
2023/01/19 04:41:36;;;;;;;0.60;0.60;;;;;;;21.76;34.67;98347.74;1893947;75;28115;-50
2023/01/19 04:44:24;;;;;;;1.17;0.70;;;;;;;21.73;34.60;98350.44;1886418;75;31113;-49
2023/01/19 04:47:14;;;;;;;0.80;0.72;;;;;;;21.75;34.57;98357.84;1890406;75;28137;-51
2023/01/19 04:50:04;;;;;;;0.75;0.72;;;;;;;21.73;34.61;98358.64;1889828;75;28162;-51
2023/01/19 04:52:53;;;;;;;0.60;0.60;;;;;;;21.75;34.59;98361.14;1884122;75;28138;-53
2023/01/19 04:55:41;;;;;;;0.53;0.53;;;;;;;21.75;34.58;98369.34;1874663;75;28164;-49
2023/01/19 04:58:29;;;;;;;1.45;0.80;;;;;;;21.74;34.61;98369.87;1884606;75;28148;-50
2023/01/19 05:01:18;;;;;;;0.60;0.60;;;;;;;21.71;34.63;98369.02;1879323;75;28129;-49
2023/01/19 05:04:07;;;;;;;0.65;0.65;;;;;;;21.71;34.61;98371.75;1885234;74;28530;-50
2023/01/19 05:06:57;;;;;;;0.70;0.70;;;;;;;21.73;34.64;98379.14;1888641;74;28075;-49
2023/01/19 05:09:45;;;;;;;0.60;0.60;;;;;;;21.69;34.65;98379.38;1871550;75;28190;-50
2023/01/19 05:12:35;;;;;;;1.50;0.70;;;;;;;21.72;34.65;98381.61;1873040;75;28191;-49
2023/01/19 05:15:23;;;;;;;0.60;0.60;;;;;;;21.71;34.64;98378.58;1876453;75;28244;-49
2023/01/19 05:18:11;;;;;;;0.70;0.70;;;;;;;21.72;34.63;98384.34;1872054;75;28115;-49
2023/01/19 05:21:01;;;;;;;0.50;0.50;;;;;;;21.70;34.62;98379.67;1874774;75;28150;-51
2023/01/19 05:23:49;;;;;;;0.60;0.60;;;;;;;21.69;34.66;98376.64;1872706;75;28262;-52
2023/01/19 05:26:37;;;;;;;0.80;0.70;;;;;;;21.69;34.57;98383.48;1870428;75;28186;-49
2023/01/19 05:29:25;;;;;;;0.70;0.50;;;;;;;21.72;34.95;98378.88;1872498;75;28067;-51
2023/01/19 05:32:13;;;;;;;0.60;0.60;;;;;;;21.72;34.95;98378.88;1888095;75;28233;-50
2023/01/19 05:35:01;;;;;;;0.60;0.60;;;;;;;21.73;34.82;98383.24;1883838;75;28169;-52
2023/01/19 05:37:50;;;;;;;0.75;0.72;;;;;;;21.76;34.79;98380.01;1871234;75;28267;-51
2023/01/19 05:40:38;;;;;;;0.80;0.80;;;;;;;21.75;34.85;98382.44;1864287;75;28231;-48
2023/01/19 05:43:26;;;;;;;0.65;0.60;;;;;;;21.75;34.93;98389.27;1856113;75;28188;-50
2023/01/19 05:46:15;;;;;;;1.80;0.70;;;;;;;21.77;34.93;98384.41;1881624;75;28109;-50
2023/01/19 05:49:04;;;;;;;0.50;0.50;;;;;;;21.76;34.94;98384.64;1866785;75;28151;-52
2023/01/19 05:51:52;;;;;;;0.60;0.60;;;;;;;21.76;34.96;98386.84;1858273;75;28163;-48
2023/01/19 05:54:41;;;;;;;0.68;0.68;;;;;;;21.78;34.98;98386.05;1893348;74;30125;-51
2023/01/19 05:57:29;;;;;;;0.68;0.60;;;;;;;21.76;35.04;98385.47;1877876;75;28051;-52
2023/01/19 06:00:18;;;;;;;0.53;0.53;;;;;;;21.79;35.03;98390.44;1870138;75;28628;-48
2023/01/19 06:03:06;;;;;;;0.70;0.70;;;;;;;21.83;35.07;98391.57;1871399;74;28201;-49
2023/01/19 06:05:58;;;;;;;0.45;0.45;;;;;;;21.84;35.05;98399.27;1885279;75;28251;-51
2023/01/19 06:08:46;;;;;;;0.50;0.50;;;;;;;21.84;35.07;98403.37;1887211;75;28106;-48
2023/01/19 06:11:35;;;;;;;0.90;0.50;;;;;;;21.83;35.11;98405.77;1882117;74;28225;-48
2023/01/19 06:14:23;;;;;;;1.27;0.50;;;;;;;21.83;35.13;98411.23;1876652;74;28145;-49
2023/01/19 06:17:12;;;;;;;0.70;0.65;;;;;;;21.81;35.19;98410.14;1888097;75;28604;-53
2023/01/19 06:20:00;;;;;;;0.75;0.62;;;;;;;21.87;35.10;98415.97;1887634;75;28088;-51
2023/01/19 06:22:49;;;;;;;0.80;0.70;;;;;;;21.84;35.20;98418.41;1885909;75;28114;-50
2023/01/19 06:25:38;;;;;;;1.10;0.80;;;;;;;21.90;35.12;98414.64;1880483;75;28156;-50
2023/01/19 06:28:27;;;;;;;0.50;0.50;;;;;;;21.91;35.03;98425.30;1856803;75;28130;-49
2023/01/19 06:31:15;;;;;;;0.50;0.50;;;;;;;21.91;35.04;98423.94;1880636;75;28023;-50
2023/01/19 06:34:04;;;;;;;0.60;0.60;;;;;;;21.92;35.12;98428.34;1863099;75;28118;-48
2023/01/19 06:36:52;;;;;;;0.68;0.68;;;;;;;21.97;35.05;98432.50;1890758;75;28100;-51
2023/01/19 06:39:41;;;;;;;0.60;0.60;;;;;;;21.91;35.15;98434.88;1872705;75;28156;-51
2023/01/19 06:42:29;;;;;;;0.68;0.68;;;;;;;21.97;35.13;98442.08;1877677;75;28170;-50
2023/01/19 06:45:17;;;;;;;0.60;0.60;;;;;;;21.96;35.13;98445.08;1882237;75;28582;-50
2023/01/19 06:48:06;;;;;;;0.70;0.70;;;;;;;21.98;35.07;98454.65;1885709;75;28161;-53
2023/01/19 06:50:55;;;;;;;1.20;0.90;;;;;;;21.96;34.57;98449.17;1881790;75;28122;-51
2023/01/19 06:53:44;;;;;;;1.30;0.75;;;;;;;21.88;33.74;98449.08;1887388;74;28171;-53
2023/01/19 06:56:32;;;;;;;0.90;0.70;;;;;;;21.93;33.91;98455.98;1888600;75;28208;-53
2023/01/19 06:59:21;;;;;;;0.55;0.55;;;;;;;21.94;34.08;98456.25;1886423;75;28153;-60
2023/01/19 07:02:18;;;;;;;2.00;0.80;;;;;;;21.91;34.23;98455.38;1888823;74;28104;-59
2023/01/19 07:05:05;;;;;;;0.70;0.70;;;;;;;21.91;34.38;98450.48;1872906;75;28175;-59
2023/01/19 07:07:54;;;;;;;0.65;0.60;;;;;;;21.92;34.46;98458.95;1884868;75;28198;-60
2023/01/19 07:10:43;;;;;;;0.70;0.60;;;;;;;21.93;34.49;98460.08;1885087;75;28051;-60
2023/01/19 07:13:32;;;;;;;0.60;0.60;;;;;;;21.93;34.54;98457.88;1887863;75;28108;-60
2023/01/19 07:16:20;;;;;;;0.70;0.70;;;;;;;21.94;34.63;98461.72;1879335;75;28185;-60
2023/01/19 07:19:09;;;;;;;0.70;0.53;;;;;;;21.97;34.67;98465.85;1882345;75;28209;-58
2023/01/19 07:21:58;;;;;;;0.60;0.60;;;;;;;22.01;34.65;98463.72;1869966;76;28129;-60
2023/01/19 07:24:46;;;;;;;0.90;0.60;;;;;;;21.81;35.05;98464.81;1876098;75;28157;-62
2023/01/19 07:27:35;;;;;;;0.47;0.47;;;;;;;21.73;35.45;98470.70;1893195;75;28211;-60
2023/01/19 07:30:24;;;;;;;0.50;0.50;;;;;;;21.70;35.67;98473.97;1895412;75;28150;-60
2023/01/19 07:33:12;;;;;;;0.70;0.70;;;;;;;21.64;35.83;98479.06;1892479;75;28233;-60
2023/01/19 07:36:01;;;;;;;0.75;0.75;;;;;;;21.60;35.92;98480.66;1876168;75;28216;-61
2023/01/19 07:38:49;;;;;;;0.78;0.65;;;;;;;21.58;36.01;98485.55;1855813;75;28737;-60
2023/01/19 07:41:38;;;;;;;1.00;0.80;;;;;;;21.50;36.03;98465.48;1884917;75;28147;-61
2023/01/19 07:44:27;;;;;;;0.60;0.60;;;;;;;21.59;36.11;98487.72;1869902;75;28068;-60
2023/01/19 07:47:16;;;;;;;0.50;0.50;;;;;;;21.58;36.06;98488.28;1885624;75;28092;-60
2023/01/19 07:50:05;;;;;;;1.13;0.67;;;;;;;21.57;36.13;98489.34;1869924;75;28224;-60
2023/01/19 07:52:54;;;;;;;1.73;0.80;;;;;;;21.61;36.09;98489.12;1866389;75;28204;-60
2023/01/19 07:55:43;;;;;;;0.90;0.55;;;;;;;21.63;36.09;98489.73;1881073;75;28170;-61
2023/01/19 07:58:32;;;;;;;0.75;0.72;;;;;;;21.65;36.07;98493.03;1877955;75;28224;-60
2023/01/19 08:01:20;;;;;;;1.00;0.62;;;;;;;21.67;36.07;98506.43;1899884;74;28102;-60
2023/01/19 08:04:09;;;;;;;1.05;0.62;;;;;;;21.66;36.03;98505.59;1866181;75;28111;-61
2023/01/19 08:06:58;;;;;;;1.80;0.80;;;;;;;21.68;36.05;98510.27;1884675;75;28141;-60
2023/01/19 08:09:47;;;;;;;1.07;0.70;;;;;;;21.66;36.07;98515.70;1893992;75;28095;-59
2023/01/19 08:12:35;;;;;;;0.60;0.60;;;;;;;21.69;36.02;98508.37;1874561;75;28105;-60
2023/01/19 08:15:25;;;;;;;1.77;0.60;;;;;;;21.69;36.00;98516.03;1856858;77;28156;-60
2023/01/19 08:18:14;;;;;;;1.62;0.78;;;;;;;21.71;36.03;98513.88;1877041;75;28133;-60
2023/01/19 08:21:03;;;;;;;1.00;0.90;;;;;;;21.72;36.02;98516.91;1884437;74;28220;-61
2023/01/19 08:23:54;;;;;;;0.93;0.70;;;;;;;21.74;36.03;98523.47;1894259;75;28188;-60
2023/01/19 08:26:42;;;;;;;0.55;0.55;;;;;;;21.74;35.99;98531.14;1874185;75;28160;-60
2023/01/19 08:29:32;;;;;;;2.20;0.65;;;;;;;21.75;35.99;98536.88;1896893;74;28189;-60
2023/01/19 08:32:21;;;;;;;0.70;0.70;;;;;;;21.77;35.98;98536.11;1902088;74;28194;-59
2023/01/19 08:35:09;;;;;;;1.00;0.72;;;;;;;21.80;35.94;98537.48;1880388;75;28176;-59
2023/01/19 08:38:00;;;;;;;0.40;0.40;;;;;;;21.79;35.96;98535.32;1893155;75;28057;-59
2023/01/19 08:40:49;;;;;;;0.68;0.65;;;;;;;21.80;35.96;98539.69;1886223;75;28293;-61
2023/01/19 08:43:38;;;;;;;1.57;0.78;;;;;;;21.81;35.96;98541.89;1882232;75;28325;-60
2023/01/19 08:46:26;;;;;;;1.60;0.78;;;;;;;21.84;35.93;98536.77;1876296;75;27989;-60
2023/01/19 08:49:14;;;;;;;0.55;0.47;;;;;;;21.86;35.86;98537.36;1869353;75;28162;-60
2023/01/19 08:52:03;;;;;;;0.80;0.67;;;;;;;21.87;35.85;98534.90;1881844;75;28044;-60
2023/01/19 08:54:51;;;;;;;1.42;0.60;;;;;;;21.90;35.85;98541.77;1889331;75;28159;-60
2023/01/19 08:57:41;;;;;;;0.60;0.60;;;;;;;21.88;35.88;98548.03;1890972;75;28136;-59
2023/01/19 09:00:33;;;;;;;0.60;0.60;;;;;;;21.89;35.91;98544.23;1886986;74;28107;-59
2023/01/19 09:03:23;;;;;;;0.90;0.70;;;;;;;21.90;35.89;98545.34;1890498;75;28184;-60
2023/01/19 09:06:15;;;;;;;0.57;0.57;;;;;;;21.89;35.92;98548.34;1873061;75;28075;-61
2023/01/19 09:09:04;;;;;;;0.70;0.70;;;;;;;21.88;35.94;98544.77;1888340;75;28608;-61
2023/01/19 09:11:54;;;;;;;1.50;0.80;;;;;;;21.90;35.91;98545.34;1884261;75;28231;-62
2023/01/19 09:14:43;;;;;;;0.50;0.50;;;;;;;21.91;35.93;98538.77;1888867;75;28221;-61
2023/01/19 09:17:31;;;;;;;0.60;0.60;;;;;;;21.92;35.92;98539.61;1888846;75;28102;-60
2023/01/19 09:20:20;;;;;;;0.60;0.40;;;;;;;21.93;35.89;98538.54;1885914;74;28095;-57
2023/01/19 09:23:09;;;;;;;0.85;0.65;;;;;;;21.92;35.91;98536.88;1880481;75;28194;-60
2023/01/19 09:26:01;;;;;;;0.60;0.60;;;;;;;21.92;35.87;98542.34;1893627;75;28214;-60
2023/01/19 09:28:49;;;;;;;1.60;0.60;;;;;;;21.92;35.79;98545.08;1811754;77;28278;-61
2023/01/19 09:31:38;;;;;;;0.50;0.50;;;;;;;21.92;35.77;98550.02;1899314;75;32038;-60
2023/01/19 09:34:27;;;;;;;0.50;0.50;;;;;;;21.92;35.74;98550.02;1888938;75;28121;-61
2023/01/19 09:37:15;;;;;;;1.52;1.40;;;;;;;21.92;35.79;98559.58;1882595;75;28107;-59
2023/01/19 09:40:05;;;;;;;0.90;0.90;;;;;;;21.98;35.36;98554.45;1891281;75;28175;-60
2023/01/19 09:43:03;;;;;;;1.32;1.00;;;;;;;21.96;35.41;98559.35;1881286;75;28149;-60
2023/01/19 09:45:55;;;;;;;1.00;1.00;;;;;;;21.95;35.54;98552.25;1885405;75;28156;-62
2023/01/19 09:49:03;;;;;;;1.50;1.20;;;;;;;21.94;35.66;98549.75;1881843;75;28147;-62
2023/01/19 09:51:51;;;;;;;1.05;1.00;;;;;;;21.97;35.73;98556.09;1899935;75;28181;-61
2023/01/19 09:54:47;;;;;;;1.20;1.10;;;;;;;21.94;35.89;98552.48;1872701;75;28079;-60
2023/01/19 09:57:36;;;;;;;2.00;1.02;;;;;;;21.94;35.94;98557.42;1891799;75;28168;-60
2023/01/19 10:00:27;;;;;;;2.02;1.30;;;;;;;21.94;36.02;98572.98;1898472;75;28111;-60
2023/01/19 10:03:17;;;;;;;0.90;0.90;;;;;;;21.94;36.07;98580.66;1888054;75;28158;-60
2023/01/19 10:06:07;;;;;;;1.37;1.00;;;;;;;21.97;36.08;98582.89;1887627;75;28148;-60
2023/01/19 10:09:04;;;;;;;0.95;0.95;;;;;;;21.93;36.14;98581.75;1890900;75;28284;-60
2023/01/19 10:12:10;;;;;;;1.90;1.12;;;;;;;21.93;36.18;98582.29;1883120;75;28182;-61
2023/01/19 10:15:19;;;;;;;1.67;1.00;;;;;;;21.90;36.22;98585.52;1882104;75;28158;-60
2023/01/19 10:18:24;;;;;;;0.85;0.82;;;;;;;21.89;36.27;98587.41;1898385;75;30095;-60
2023/01/19 10:21:24;;;;;;;1.25;1.00;;;;;;;21.89;36.35;98587.98;1887346;75;28127;-60
2023/01/19 10:24:22;;;;;;;1.00;1.00;;;;;;;21.89;36.46;98591.52;1882923;75;28360;-60
2023/01/19 10:27:18;;;;;;;1.20;1.20;;;;;;;21.91;36.48;98583.88;1865640;76;39006;-60
2023/01/19 10:30:09;;;;;;;0.80;0.80;;;;;;;21.92;36.51;98580.09;1868836;75;28211;-61
2023/01/19 10:32:57;;;;;;;1.20;0.90;;;;;;;21.94;36.54;98574.35;1852793;76;28766;-61
2023/01/19 10:35:47;;;;;;;1.42;0.90;;;;;;;21.96;36.56;98583.96;1841835;76;28173;-61
2023/01/19 10:38:36;;;;;;;1.00;1.00;;;;;;;21.97;36.57;98579.33;1826067;77;28229;-61
2023/01/19 10:41:27;;;;;;;1.10;0.90;;;;;;;22.00;36.57;98573.36;1856389;75;28183;-60
2023/01/19 10:44:21;;;;;;;1.00;1.00;;;;;;;22.00;36.58;98583.77;1839205;76;28326;-58
2023/01/19 10:47:15;;;;;;;0.85;0.80;;;;;;;22.02;36.51;98583.50;1851275;76;28187;-60
2023/01/19 10:50:26;;;;;;;2.20;1.00;;;;;;;22.03;36.57;98580.23;1867926;75;28139;-60
2023/01/19 10:53:20;;;;;;;1.05;1.00;;;;;;;22.01;36.54;98579.94;1869300;75;28186;-60
2023/01/19 10:56:18;;;;;;;2.62;1.07;;;;;;;22.00;36.58;98570.09;1862905;76;28110;-61
2023/01/19 10:59:08;;;;;;;1.70;1.02;;;;;;;22.01;36.58;98573.09;1870704;75;28224;-61
2023/01/19 11:02:30;;;;;;;0.90;0.90;;;;;;;22.02;36.52;98568.47;1860667;75;28299;-61
2023/01/19 11:05:27;;;;;;;0.80;0.80;;;;;;;22.04;36.49;98566.30;1854319;76;28959;-60
2023/01/19 11:08:25;;;;;;;1.55;1.10;;;;;;;22.01;36.51;98567.63;1860078;76;28188;-61
2023/01/19 11:11:14;;;;;;;1.20;1.15;;;;;;;22.00;36.51;98566.53;1883397;75;28190;-61
2023/01/19 11:14:13;;;;;;;1.30;1.20;;;;;;;22.01;36.43;98566.27;1864561;75;28292;-61
2023/01/19 11:17:01;;;;;;;1.73;1.40;;;;;;;22.07;36.38;98562.23;1854036;75;28233;-61
2023/01/19 11:19:56;;;;;;;1.10;0.98;;;;;;;22.09;36.31;98565.53;1854654;76;28171;-61
2023/01/19 11:22:44;;;;;;;1.30;1.20;;;;;;;22.09;36.30;98564.17;1874691;75;28227;-61
2023/01/19 11:25:35;;;;;;;1.30;1.00;;;;;;;22.09;36.23;98562.27;1862143;75;28225;-61
2023/01/19 11:28:50;;;;;;;1.67;1.33;;;;;;;22.08;36.26;98559.23;1855497;76;28329;-62
2023/01/19 11:31:38;;;;;;;1.20;1.10;;;;;;;22.09;36.21;98559.53;1762193;80;28561;-60
2023/01/19 11:34:32;;;;;;;1.02;1.02;;;;;;;22.05;36.28;98557.56;1758646;80;28411;-59
2023/01/19 11:37:29;;;;;;;1.22;1.12;;;;;;;22.12;36.25;98550.00;1836402;75;28225;-60
2023/01/19 11:40:18;;;;;;;2.00;1.55;;;;;;;22.17;36.14;98545.96;1846308;75;28191;-61
2023/01/19 11:43:08;;;;;;;1.60;1.50;;;;;;;22.19;36.13;98540.53;1862259;75;28341;-59
2023/01/19 11:45:58;;;;;;;1.70;1.60;;;;;;;22.22;36.08;98534.52;1856765;76;31313;-60
2023/01/19 11:48:51;;;;;;;1.77;1.67;;;;;;;22.26;36.03;98532.13;1847109;76;28182;-60
2023/01/19 11:51:51;;;;;;;3.50;1.80;;;;;;;22.27;36.02;98533.75;1857495;75;28336;-59
2023/01/19 11:54:46;;;;;;;2.30;2.05;;;;;;;22.31;35.96;98532.98;1869360;75;28189;-60
2023/01/19 11:57:34;;;;;;;1.80;1.70;;;;;;;22.27;36.02;98537.86;1845795;76;28327;-59
2023/01/19 12:00:38;;;;;;;2.22;2.05;;;;;;;22.26;36.04;98534.33;1862336;76;28261;-60
2023/01/19 12:03:32;;;;;;;2.33;2.10;;;;;;;22.29;36.02;98533.79;1847288;75;28249;-60
2023/01/19 12:06:23;;;;;;;2.10;2.00;;;;;;;22.27;36.04;98522.81;1864191;75;28243;-61
2023/01/19 12:09:15;;;;;;;3.10;2.10;;;;;;;22.30;35.96;98515.47;1875351;75;28157;-61
2023/01/19 12:12:09;;;;;;;3.60;1.90;;;;;;;22.29;35.99;98509.70;1866328;76;28317;-60
2023/01/19 12:15:06;;;;;;;2.17;1.98;;;;;;;22.30;35.99;98511.37;1852742;76;28275;-61
2023/01/19 12:17:58;;;;;;;2.00;1.90;;;;;;;22.28;36.02;98507.53;1863429;76;28116;-61
2023/01/19 12:20:49;;;;;;;1.90;1.80;;;;;;;22.29;36.00;98505.59;1865615;76;28234;-60
2023/01/19 12:23:46;;;;;;;2.35;2.20;;;;;;;22.30;35.96;98503.99;1880550;75;28297;-61
2023/01/19 12:26:55;;;;;;;2.50;2.10;;;;;;;22.30;35.95;98501.26;1878813;75;28196;-60
2023/01/19 12:29:45;;;;;;;2.08;1.98;;;;;;;22.30;35.94;98493.59;1851963;75;28173;-61
2023/01/19 12:32:36;;;;;;;2.15;1.90;;;;;;;22.30;35.90;98482.64;1872496;74;28260;-62
2023/01/19 12:35:59;;;;;;;2.30;2.10;;;;;;;22.37;35.85;98482.73;1877142;74;28309;-60
2023/01/19 12:38:53;;;;;;;3.30;2.15;;;;;;;22.37;35.69;98469.05;1868457;76;28272;-60
2023/01/19 12:41:44;;;;;;;2.62;2.42;;;;;;;22.45;35.58;98479.52;1857412;75;28234;-60
2023/01/19 12:44:33;;;;;;;3.12;2.20;;;;;;;22.48;35.63;98479.02;1872049;75;28223;-59
2023/01/19 12:47:23;;;;;;;2.47;1.98;;;;;;;22.51;35.61;98472.20;1868575;76;28190;-60
2023/01/19 12:50:14;;;;;;;2.40;2.20;;;;;;;22.54;35.53;98466.22;1862240;75;28244;-60
2023/01/19 12:53:07;;;;;;;2.43;2.23;;;;;;;22.58;35.43;98463.23;1867066;75;28146;-61
2023/01/19 12:56:01;;;;;;;6.03;2.20;;;;;;;22.60;35.34;98457.82;1856726;77;28237;-60
2023/01/19 12:58:50;;;;;;;2.50;2.30;;;;;;;22.62;35.24;98457.02;1881481;75;28206;-61
2023/01/19 13:01:38;;;;;;;2.45;2.20;;;;;;;22.64;35.17;98456.74;1882170;75;28231;-61
2023/01/19 13:04:32;;;;;;;2.77;2.00;;;;;;;22.64;35.13;98451.27;1857763;75;28283;-60
2023/01/19 13:07:21;;;;;;;3.37;2.25;;;;;;;22.66;35.11;98452.66;1882787;75;28261;-59
2023/01/19 13:10:46;;;;;;;2.60;1.90;;;;;;;22.69;35.06;98447.21;1857509;75;28260;-59
2023/01/19 13:13:41;;;;;;;2.37;2.08;;;;;;;22.68;35.03;98445.02;1878544;75;28721;-60
2023/01/19 13:16:32;;;;;;;2.20;1.98;;;;;;;22.61;35.10;98447.14;1890089;75;28156;-60
2023/01/19 13:19:24;;;;;;;2.90;2.02;;;;;;;22.59;35.11;98449.84;1857052;77;28125;-59
2023/01/19 13:22:50;;;;;;;3.37;2.10;;;;;;;22.58;35.12;98439.97;1868583;76;28122;-61
2023/01/19 13:25:38;;;;;;;2.30;2.00;;;;;;;;;;1868528;75;28604;-61
2023/01/19 13:28:32;;;;;;;3.70;2.20;;;;;;;22.56;35.12;98434.77;1856778;77;28335;-61
2023/01/19 13:31:22;;;;;;;4.22;2.22;;;;;;;22.55;35.14;98434.47;1877972;75;28194;-61
2023/01/19 13:34:13;;;;;;;3.52;2.05;;;;;;;22.54;35.09;98427.90;1871286;76;28126;-60
2023/01/19 13:37:04;;;;;;;2.33;1.82;;;;;;;22.55;35.03;98429.53;1896268;75;28111;-60